sensor_id;sensor_type;location;lat;lon;timestamp;temperature;humidity
7900;DHT22;3995;50.856;4.404;2022-08-27T00:00:11;25.30;47.70
7900;DHT22;3995;50.856;4.404;2022-08-27T00:02:40;25.30;47.70
7900;DHT22;3995;50.856;4.404;2022-08-27T00:05:08;25.20;47.60
7900;DHT22;3995;50.856;4.404;2022-08-27T00:07:35;25.30;47.70
7900;DHT22;3995;50.856;4.404;2022-08-27T00:10:03;25.20;47.50
7900;DHT22;3995;50.856;4.404;2022-08-27T00:12:34;25.20;47.50
7900;DHT22;3995;50.856;4.404;2022-08-27T00:15:01;25.20;47.50
7900;DHT22;3995;50.856;4.404;2022-08-27T00:17:28;25.20;47.50
7900;DHT22;3995;50.856;4.404;2022-08-27T00:19:55;25.20;47.50
7900;DHT22;3995;50.856;4.404;2022-08-27T00:22:23;25.20;47.50
7900;DHT22;3995;50.856;4.404;2022-08-27T00:24:50;25.20;47.40
7900;DHT22;3995;50.856;4.404;2022-08-27T00:27:17;25.20;47.40
7900;DHT22;3995;50.856;4.404;2022-08-27T00:29:46;25.20;47.30
7900;DHT22;3995;50.856;4.404;2022-08-27T00:32:14;25.20;47.40
7900;DHT22;3995;50.856;4.404;2022-08-27T00:34:41;25.20;47.30
7900;DHT22;3995;50.856;4.404;2022-08-27T00:37:08;25.20;47.30
7900;DHT22;3995;50.856;4.404;2022-08-27T00:39:35;25.10;47.20
7900;DHT22;3995;50.856;4.404;2022-08-27T00:42:04;25.10;47.30
7900;DHT22;3995;50.856;4.404;2022-08-27T00:44:32;25.10;47.80
7900;DHT22;3995;50.856;4.404;2022-08-27T00:47:04;25.10;47.20
7900;DHT22;3995;50.856;4.404;2022-08-27T00:49:35;25.10;47.20
7900;DHT22;3995;50.856;4.404;2022-08-27T00:52:17;25.10;47.20
7900;DHT22;3995;50.856;4.404;2022-08-27T00:54:45;25.10;47.20
7900;DHT22;3995;50.856;4.404;2022-08-27T00:57:13;25.10;47.20
7900;DHT22;3995;50.856;4.404;2022-08-27T00:59:42;25.10;47.30
7900;DHT22;3995;50.856;4.404;2022-08-27T01:02:11;25.10;47.20
7900;DHT22;3995;50.856;4.404;2022-08-27T01:04:48;25.10;47.20
7900;DHT22;3995;50.856;4.404;2022-08-27T01:07:15;25.10;47.20
7900;DHT22;3995;50.856;4.404;2022-08-27T01:09:45;25.10;47.30
7900;DHT22;3995;50.856;4.404;2022-08-27T01:12:13;25.10;47.30
7900;DHT22;3995;50.856;4.404;2022-08-27T01:14:41;25.00;47.20
7900;DHT22;3995;50.856;4.404;2022-08-27T01:17:11;25.00;47.20
7900;DHT22;3995;50.856;4.404;2022-08-27T01:19:43;25.10;47.20
7900;DHT22;3995;50.856;4.404;2022-08-27T01:22:17;25.10;47.20
7900;DHT22;3995;50.856;4.404;2022-08-27T01:24:49;25.00;47.10
7900;DHT22;3995;50.856;4.404;2022-08-27T01:27:18;25.00;47.30
7900;DHT22;3995;50.856;4.404;2022-08-27T01:29:46;25.00;47.30
7900;DHT22;3995;50.856;4.404;2022-08-27T01:32:17;25.00;47.30
7900;DHT22;3995;50.856;4.404;2022-08-27T01:34:45;25.00;47.20
7900;DHT22;3995;50.856;4.404;2022-08-27T01:37:13;25.00;47.30
7900;DHT22;3995;50.856;4.404;2022-08-27T01:39:41;25.00;47.30
7900;DHT22;3995;50.856;4.404;2022-08-27T01:42:15;25.00;47.30
7900;DHT22;3995;50.856;4.404;2022-08-27T01:44:46;25.00;47.20
7900;DHT22;3995;50.856;4.404;2022-08-27T01:47:15;25.00;47.30
7900;DHT22;3995;50.856;4.404;2022-08-27T01:49:42;24.90;47.30
7900;DHT22;3995;50.856;4.404;2022-08-27T01:52:09;24.90;47.30
7900;DHT22;3995;50.856;4.404;2022-08-27T01:54:37;24.90;47.30
7900;DHT22;3995;50.856;4.404;2022-08-27T01:57:04;25.00;47.30
7900;DHT22;3995;50.856;4.404;2022-08-27T01:59:33;24.90;47.30
7900;DHT22;3995;50.856;4.404;2022-08-27T02:02:00;24.90;47.30
7900;DHT22;3995;50.856;4.404;2022-08-27T02:04:28;24.90;47.30
7900;DHT22;3995;50.856;4.404;2022-08-27T02:06:56;24.90;47.90
7900;DHT22;3995;50.856;4.404;2022-08-27T02:09:23;24.90;47.30
7900;DHT22;3995;50.856;4.404;2022-08-27T02:11:51;24.90;47.30
7900;DHT22;3995;50.856;4.404;2022-08-27T02:14:19;24.90;47.40
7900;DHT22;3995;50.856;4.404;2022-08-27T02:16:49;24.90;47.40
7900;DHT22;3995;50.856;4.404;2022-08-27T02:19:16;24.90;47.40
7900;DHT22;3995;50.856;4.404;2022-08-27T02:21:44;24.90;47.50
7900;DHT22;3995;50.856;4.404;2022-08-27T02:24:11;24.80;47.50
7900;DHT22;3995;50.856;4.404;2022-08-27T02:26:38;24.80;47.60
7900;DHT22;3995;50.856;4.404;2022-08-27T02:29:05;24.70;47.50
7900;DHT22;3995;50.856;4.404;2022-08-27T02:31:33;24.80;47.60
7900;DHT22;3995;50.856;4.404;2022-08-27T02:34:03;24.70;47.60
7900;DHT22;3995;50.856;4.404;2022-08-27T02:36:30;24.80;47.70
7900;DHT22;3995;50.856;4.404;2022-08-27T02:38:57;24.80;47.60
7900;DHT22;3995;50.856;4.404;2022-08-27T02:41:25;24.80;47.60
7900;DHT22;3995;50.856;4.404;2022-08-27T02:43:53;24.70;47.50
7900;DHT22;3995;50.856;4.404;2022-08-27T02:46:19;24.70;47.50
7900;DHT22;3995;50.856;4.404;2022-08-27T02:48:47;24.70;47.50
7900;DHT22;3995;50.856;4.404;2022-08-27T02:51:15;24.70;47.50
7900;DHT22;3995;50.856;4.404;2022-08-27T02:53:43;24.80;47.60
7900;DHT22;3995;50.856;4.404;2022-08-27T02:56:10;24.70;47.60
7900;DHT22;3995;50.856;4.404;2022-08-27T02:58:37;24.70;47.60
7900;DHT22;3995;50.856;4.404;2022-08-27T03:01:06;24.70;47.70
7900;DHT22;3995;50.856;4.404;2022-08-27T03:03:33;24.70;47.70
7900;DHT22;3995;50.856;4.404;2022-08-27T03:06:00;24.60;47.70
7900;DHT22;3995;50.856;4.404;2022-08-27T03:08:29;24.60;47.70
7900;DHT22;3995;50.856;4.404;2022-08-27T03:10:56;24.60;47.70
7900;DHT22;3995;50.856;4.404;2022-08-27T03:13:23;24.60;47.80
7900;DHT22;3995;50.856;4.404;2022-08-27T03:15:51;24.60;47.80
7900;DHT22;3995;50.856;4.404;2022-08-27T03:18:19;24.50;47.70
7900;DHT22;3995;50.856;4.404;2022-08-27T03:20:48;24.50;47.80
7900;DHT22;3995;50.856;4.404;2022-08-27T03:23:17;24.50;47.80
7900;DHT22;3995;50.856;4.404;2022-08-27T03:25:49;24.50;47.80
7900;DHT22;3995;50.856;4.404;2022-08-27T03:28:17;24.50;47.80
7900;DHT22;3995;50.856;4.404;2022-08-27T03:30:48;24.50;47.90
7900;DHT22;3995;50.856;4.404;2022-08-27T03:33:17;24.50;47.90
7900;DHT22;3995;50.856;4.404;2022-08-27T03:35:45;24.50;47.90
7900;DHT22;3995;50.856;4.404;2022-08-27T03:38:12;24.40;47.80
7900;DHT22;3995;50.856;4.404;2022-08-27T03:40:40;24.40;47.80
7900;DHT22;3995;50.856;4.404;2022-08-27T03:43:11;24.40;47.80
7900;DHT22;3995;50.856;4.404;2022-08-27T03:45:38;24.40;47.90
7900;DHT22;3995;50.856;4.404;2022-08-27T03:48:08;24.40;47.90
7900;DHT22;3995;50.856;4.404;2022-08-27T03:50:37;24.40;48.00
7900;DHT22;3995;50.856;4.404;2022-08-27T03:53:04;24.40;48.00
7900;DHT22;3995;50.856;4.404;2022-08-27T03:55:31;24.40;48.00
7900;DHT22;3995;50.856;4.404;2022-08-27T03:57:59;24.40;48.00
7900;DHT22;3995;50.856;4.404;2022-08-27T04:00:27;24.40;48.00
7900;DHT22;3995;50.856;4.404;2022-08-27T04:02:55;24.40;48.00
7900;DHT22;3995;50.856;4.404;2022-08-27T04:05:22;24.40;48.00
7900;DHT22;3995;50.856;4.404;2022-08-27T04:07:49;24.40;48.00
7900;DHT22;3995;50.856;4.404;2022-08-27T04:10:16;24.40;48.10
7900;DHT22;3995;50.856;4.404;2022-08-27T04:12:44;24.40;48.10
7900;DHT22;3995;50.856;4.404;2022-08-27T04:15:12;24.40;48.10
7900;DHT22;3995;50.856;4.404;2022-08-27T04:17:40;24.40;48.00
7900;DHT22;3995;50.856;4.404;2022-08-27T04:20:09;24.40;48.00
7900;DHT22;3995;50.856;4.404;2022-08-27T04:22:37;24.40;48.10
7900;DHT22;3995;50.856;4.404;2022-08-27T04:25:05;24.40;48.20
7900;DHT22;3995;50.856;4.404;2022-08-27T04:27:32;24.40;48.20
7900;DHT22;3995;50.856;4.404;2022-08-27T04:30:01;24.40;48.20
7900;DHT22;3995;50.856;4.404;2022-08-27T04:32:29;24.40;48.20
7900;DHT22;3995;50.856;4.404;2022-08-27T04:34:59;24.30;48.20
7900;DHT22;3995;50.856;4.404;2022-08-27T04:37:29;24.40;48.30
7900;DHT22;3995;50.856;4.404;2022-08-27T04:39:58;24.40;48.30
7900;DHT22;3995;50.856;4.404;2022-08-27T04:42:25;24.40;48.30
7900;DHT22;3995;50.856;4.404;2022-08-27T04:44:52;24.40;48.30
7900;DHT22;3995;50.856;4.404;2022-08-27T04:47:19;24.30;48.30
7900;DHT22;3995;50.856;4.404;2022-08-27T04:49:46;24.40;48.40
7900;DHT22;3995;50.856;4.404;2022-08-27T04:52:15;24.30;48.40
7900;DHT22;3995;50.856;4.404;2022-08-27T04:54:42;24.40;48.50
7900;DHT22;3995;50.856;4.404;2022-08-27T04:57:09;24.40;48.50
7900;DHT22;3995;50.856;4.404;2022-08-27T04:59:37;24.40;48.50
7900;DHT22;3995;50.856;4.404;2022-08-27T05:02:06;24.30;48.40
7900;DHT22;3995;50.856;4.404;2022-08-27T05:04:34;24.40;48.50
7900;DHT22;3995;50.856;4.404;2022-08-27T05:07:02;24.40;48.60
7900;DHT22;3995;50.856;4.404;2022-08-27T05:09:31;24.30;48.50
7900;DHT22;3995;50.856;4.404;2022-08-27T05:11:58;24.30;48.50
7900;DHT22;3995;50.856;4.404;2022-08-27T05:14:26;24.30;48.50
7900;DHT22;3995;50.856;4.404;2022-08-27T05:16:55;24.30;48.50
7900;DHT22;3995;50.856;4.404;2022-08-27T05:19:23;24.30;48.60
7900;DHT22;3995;50.856;4.404;2022-08-27T05:21:51;24.30;48.70
7900;DHT22;3995;50.856;4.404;2022-08-27T05:24:19;24.30;48.70
7900;DHT22;3995;50.856;4.404;2022-08-27T05:26:48;24.30;48.70
7900;DHT22;3995;50.856;4.404;2022-08-27T05:29:16;24.30;48.80
7900;DHT22;3995;50.856;4.404;2022-08-27T05:31:43;24.30;48.80
7900;DHT22;3995;50.856;4.404;2022-08-27T05:34:13;24.30;48.90
7900;DHT22;3995;50.856;4.404;2022-08-27T05:36:41;24.30;48.80
7900;DHT22;3995;50.856;4.404;2022-08-27T05:39:08;24.30;48.80
7900;DHT22;3995;50.856;4.404;2022-08-27T05:41:35;24.30;48.80
7900;DHT22;3995;50.856;4.404;2022-08-27T05:44:06;24.30;48.80
7900;DHT22;3995;50.856;4.404;2022-08-27T05:46:34;24.30;48.80
7900;DHT22;3995;50.856;4.404;2022-08-27T05:49:03;24.30;48.90
7900;DHT22;3995;50.856;4.404;2022-08-27T05:51:32;24.30;48.80
7900;DHT22;3995;50.856;4.404;2022-08-27T05:54:02;24.30;48.90
7900;DHT22;3995;50.856;4.404;2022-08-27T05:56:32;24.30;48.90
7900;DHT22;3995;50.856;4.404;2022-08-27T05:59:00;24.30;48.80
7900;DHT22;3995;50.856;4.404;2022-08-27T06:01:47;24.30;48.80
7900;DHT22;3995;50.856;4.404;2022-08-27T06:04:15;24.30;48.80
7900;DHT22;3995;50.856;4.404;2022-08-27T06:06:43;24.30;48.90
7900;DHT22;3995;50.856;4.404;2022-08-27T06:09:14;24.30;48.90
7900;DHT22;3995;50.856;4.404;2022-08-27T06:11:41;24.30;48.90
7900;DHT22;3995;50.856;4.404;2022-08-27T06:14:09;24.30;49.00
7900;DHT22;3995;50.856;4.404;2022-08-27T06:16:37;24.30;49.00
7900;DHT22;3995;50.856;4.404;2022-08-27T06:19:07;24.30;49.00
7900;DHT22;3995;50.856;4.404;2022-08-27T06:21:36;24.30;49.00
7900;DHT22;3995;50.856;4.404;2022-08-27T06:24:04;24.30;49.00
7900;DHT22;3995;50.856;4.404;2022-08-27T06:26:31;24.30;49.00
7900;DHT22;3995;50.856;4.404;2022-08-27T06:29:01;24.30;49.00
7900;DHT22;3995;50.856;4.404;2022-08-27T06:31:28;24.30;49.00
7900;DHT22;3995;50.856;4.404;2022-08-27T06:33:58;24.30;49.00
7900;DHT22;3995;50.856;4.404;2022-08-27T06:36:28;24.30;49.00
7900;DHT22;3995;50.856;4.404;2022-08-27T06:38:56;24.30;49.00
7900;DHT22;3995;50.856;4.404;2022-08-27T06:41:26;24.30;48.90
7900;DHT22;3995;50.856;4.404;2022-08-27T06:43:54;24.30;48.90
7900;DHT22;3995;50.856;4.404;2022-08-27T06:46:24;24.30;48.80
7900;DHT22;3995;50.856;4.404;2022-08-27T06:48:56;24.30;48.90
7900;DHT22;3995;50.856;4.404;2022-08-27T06:51:28;24.20;48.80
7900;DHT22;3995;50.856;4.404;2022-08-27T06:53:57;24.20;48.90
7900;DHT22;3995;50.856;4.404;2022-08-27T06:56:25;24.20;49.00
7900;DHT22;3995;50.856;4.404;2022-08-27T06:58:53;24.20;49.60
7900;DHT22;3995;50.856;4.404;2022-08-27T07:01:23;24.30;49.10
7900;DHT22;3995;50.856;4.404;2022-08-27T07:03:53;24.30;49.10
7900;DHT22;3995;50.856;4.404;2022-08-27T07:06:21;24.30;48.80
7900;DHT22;3995;50.856;4.404;2022-08-27T07:08:50;24.30;48.80
7900;DHT22;3995;50.856;4.404;2022-08-27T07:11:18;24.30;48.70
7900;DHT22;3995;50.856;4.404;2022-08-27T07:13:46;24.30;48.70
7900;DHT22;3995;50.856;4.404;2022-08-27T07:16:16;24.30;48.60
7900;DHT22;3995;50.856;4.404;2022-08-27T07:18:44;24.30;48.60
7900;DHT22;3995;50.856;4.404;2022-08-27T07:21:12;24.30;48.60
7900;DHT22;3995;50.856;4.404;2022-08-27T07:23:44;24.30;48.60
7900;DHT22;3995;50.856;4.404;2022-08-27T07:26:14;24.30;48.70
7900;DHT22;3995;50.856;4.404;2022-08-27T07:28:43;24.30;48.60
7900;DHT22;3995;50.856;4.404;2022-08-27T07:31:13;24.30;48.70
7900;DHT22;3995;50.856;4.404;2022-08-27T07:33:41;24.30;48.70
7900;DHT22;3995;50.856;4.404;2022-08-27T07:36:08;24.30;48.70
7900;DHT22;3995;50.856;4.404;2022-08-27T07:38:36;24.30;48.60
7900;DHT22;3995;50.856;4.404;2022-08-27T07:41:03;24.30;48.50
7900;DHT22;3995;50.856;4.404;2022-08-27T07:43:32;24.30;48.60
7900;DHT22;3995;50.856;4.404;2022-08-27T07:46:16;24.30;48.50
7900;DHT22;3995;50.856;4.404;2022-08-27T07:48:43;24.30;48.70
7900;DHT22;3995;50.856;4.404;2022-08-27T07:51:13;24.30;49.20
7900;DHT22;3995;50.856;4.404;2022-08-27T07:53:41;24.30;48.70
7900;DHT22;3995;50.856;4.404;2022-08-27T07:56:09;24.30;48.70
7900;DHT22;3995;50.856;4.404;2022-08-27T07:58:38;24.30;48.60
7900;DHT22;3995;50.856;4.404;2022-08-27T08:01:06;24.40;48.50
7900;DHT22;3995;50.856;4.404;2022-08-27T08:03:33;24.40;48.30
7900;DHT22;3995;50.856;4.404;2022-08-27T08:06:02;24.40;48.20
7900;DHT22;3995;50.856;4.404;2022-08-27T08:08:31;24.40;48.10
7900;DHT22;3995;50.856;4.404;2022-08-27T08:10:59;24.40;48.00
7900;DHT22;3995;50.856;4.404;2022-08-27T08:13:27;24.40;48.00
7900;DHT22;3995;50.856;4.404;2022-08-27T08:15:56;24.40;48.00
7900;DHT22;3995;50.856;4.404;2022-08-27T08:18:23;24.40;48.00
7900;DHT22;3995;50.856;4.404;2022-08-27T08:20:50;24.40;48.00
7900;DHT22;3995;50.856;4.404;2022-08-27T08:23:17;24.40;47.90
7900;DHT22;3995;50.856;4.404;2022-08-27T08:25:45;24.40;46.90
7900;DHT22;3995;50.856;4.404;2022-08-27T08:28:12;24.40;47.10
7900;DHT22;3995;50.856;4.404;2022-08-27T08:30:41;24.40;46.50
7900;DHT22;3995;50.856;4.404;2022-08-27T08:33:10;24.50;46.50
7900;DHT22;3995;50.856;4.404;2022-08-27T08:35:39;24.50;46.50
7900;DHT22;3995;50.856;4.404;2022-08-27T08:38:06;24.50;46.60
7900;DHT22;3995;50.856;4.404;2022-08-27T08:40:36;24.50;46.40
7900;DHT22;3995;50.856;4.404;2022-08-27T08:43:05;24.50;46.80
7900;DHT22;3995;50.856;4.404;2022-08-27T08:45:35;24.50;46.00
7900;DHT22;3995;50.856;4.404;2022-08-27T08:48:07;24.50;45.70
7900;DHT22;3995;50.856;4.404;2022-08-27T08:50:47;24.50;45.70
7900;DHT22;3995;50.856;4.404;2022-08-27T08:53:20;24.60;45.70
7900;DHT22;3995;50.856;4.404;2022-08-27T08:55:54;24.50;45.60
7900;DHT22;3995;50.856;4.404;2022-08-27T08:58:31;24.60;45.70
7900;DHT22;3995;50.856;4.404;2022-08-27T09:01:00;24.60;45.70
7900;DHT22;3995;50.856;4.404;2022-08-27T09:03:30;24.60;46.20
7900;DHT22;3995;50.856;4.404;2022-08-27T09:06:03;24.60;45.40
7900;DHT22;3995;50.856;4.404;2022-08-27T09:08:32;24.60;45.40
7900;DHT22;3995;50.856;4.404;2022-08-27T09:11:05;24.60;45.30
7900;DHT22;3995;50.856;4.404;2022-08-27T09:13:38;24.70;45.20
7900;DHT22;3995;50.856;4.404;2022-08-27T09:16:06;24.70;45.10
7900;DHT22;3995;50.856;4.404;2022-08-27T09:18:37;24.60;45.00
7900;DHT22;3995;50.856;4.404;2022-08-27T09:21:14;24.60;45.10
7900;DHT22;3995;50.856;4.404;2022-08-27T09:23:52;24.70;45.30
7900;DHT22;3995;50.856;4.404;2022-08-27T09:26:25;24.70;45.10
7900;DHT22;3995;50.856;4.404;2022-08-27T09:28:56;24.70;45.10
7900;DHT22;3995;50.856;4.404;2022-08-27T09:31:46;24.70;44.80
7900;DHT22;3995;50.856;4.404;2022-08-27T09:34:14;24.70;45.00
7900;DHT22;3995;50.856;4.404;2022-08-27T09:36:56;24.70;44.90
7900;DHT22;3995;50.856;4.404;2022-08-27T09:39:32;24.80;44.60
7900;DHT22;3995;50.856;4.404;2022-08-27T09:42:01;24.80;44.60
7900;DHT22;3995;50.856;4.404;2022-08-27T09:44:29;24.80;44.70
7900;DHT22;3995;50.856;4.404;2022-08-27T09:46:58;24.80;44.50
7900;DHT22;3995;50.856;4.404;2022-08-27T09:49:26;24.80;44.40
7900;DHT22;3995;50.856;4.404;2022-08-27T09:51:55;24.80;44.20
7900;DHT22;3995;50.856;4.404;2022-08-27T09:54:36;24.90;44.60
7900;DHT22;3995;50.856;4.404;2022-08-27T09:57:04;24.90;44.60
7900;DHT22;3995;50.856;4.404;2022-08-27T09:59:34;24.90;44.60
7900;DHT22;3995;50.856;4.404;2022-08-27T10:02:05;24.90;44.30
7900;DHT22;3995;50.856;4.404;2022-08-27T10:04:35;25.00;44.20
7900;DHT22;3995;50.856;4.404;2022-08-27T10:07:22;25.00;44.10
7900;DHT22;3995;50.856;4.404;2022-08-27T10:09:58;25.10;44.10
7900;DHT22;3995;50.856;4.404;2022-08-27T10:12:30;25.00;44.00
7900;DHT22;3995;50.856;4.404;2022-08-27T10:15:00;25.10;43.70
7900;DHT22;3995;50.856;4.404;2022-08-27T10:17:37;25.00;43.60
7900;DHT22;3995;50.856;4.404;2022-08-27T10:20:14;25.10;43.10
7900;DHT22;3995;50.856;4.404;2022-08-27T10:22:52;25.10;43.30
7900;DHT22;3995;50.856;4.404;2022-08-27T10:25:28;25.10;43.10
7900;DHT22;3995;50.856;4.404;2022-08-27T10:28:08;25.10;42.90
7900;DHT22;3995;50.856;4.404;2022-08-27T10:30:47;25.10;42.20
7900;DHT22;3995;50.856;4.404;2022-08-27T10:33:21;25.10;42.00
7900;DHT22;3995;50.856;4.404;2022-08-27T10:35:59;25.10;42.50
7900;DHT22;3995;50.856;4.404;2022-08-27T10:38:35;25.20;42.70
7900;DHT22;3995;50.856;4.404;2022-08-27T10:41:07;25.20;42.80
7900;DHT22;3995;50.856;4.404;2022-08-27T10:44:11;25.20;42.50
7900;DHT22;3995;50.856;4.404;2022-08-27T10:46:59;25.30;42.40
7900;DHT22;3995;50.856;4.404;2022-08-27T10:49:39;25.30;42.80
7900;DHT22;3995;50.856;4.404;2022-08-27T10:52:16;25.30;42.80
7900;DHT22;3995;50.856;4.404;2022-08-27T10:54:52;25.30;42.80
7900;DHT22;3995;50.856;4.404;2022-08-27T10:57:32;25.40;42.90
7900;DHT22;3995;50.856;4.404;2022-08-27T11:00:07;25.40;42.90
7900;DHT22;3995;50.856;4.404;2022-08-27T11:02:40;25.40;42.60
7900;DHT22;3995;50.856;4.404;2022-08-27T11:05:14;25.40;42.30
7900;DHT22;3995;50.856;4.404;2022-08-27T11:07:45;25.50;42.20
7900;DHT22;3995;50.856;4.404;2022-08-27T11:10:17;25.50;42.00
7900;DHT22;3995;50.856;4.404;2022-08-27T11:12:47;25.60;42.00
7900;DHT22;3995;50.856;4.404;2022-08-27T11:15:20;25.60;42.30
7900;DHT22;3995;50.856;4.404;2022-08-27T11:17:53;25.70;42.30
7900;DHT22;3995;50.856;4.404;2022-08-27T11:20:27;25.70;42.60
7900;DHT22;3995;50.856;4.404;2022-08-27T11:22:59;25.70;42.80
7900;DHT22;3995;50.856;4.404;2022-08-27T11:25:36;25.70;42.90
7900;DHT22;3995;50.856;4.404;2022-08-27T11:28:05;25.70;43.20
7900;DHT22;3995;50.856;4.404;2022-08-27T11:30:40;25.60;43.40
7900;DHT22;3995;50.856;4.404;2022-08-27T11:33:16;25.60;44.20
7900;DHT22;3995;50.856;4.404;2022-08-27T11:36:05;25.60;43.80
7900;DHT22;3995;50.856;4.404;2022-08-27T11:38:44;25.60;43.50
7900;DHT22;3995;50.856;4.404;2022-08-27T11:41:45;25.60;43.50
7900;DHT22;3995;50.856;4.404;2022-08-27T11:44:19;25.60;43.60
7900;DHT22;3995;50.856;4.404;2022-08-27T11:46:52;25.50;43.70
7900;DHT22;3995;50.856;4.404;2022-08-27T11:49:25;25.50;43.70
7900;DHT22;3995;50.856;4.404;2022-08-27T11:52:00;25.50;43.70
7900;DHT22;3995;50.856;4.404;2022-08-27T11:54:29;25.50;43.90
7900;DHT22;3995;50.856;4.404;2022-08-27T11:56:58;25.50;43.90
7900;DHT22;3995;50.856;4.404;2022-08-27T11:59:31;25.50;43.90
7900;DHT22;3995;50.856;4.404;2022-08-27T12:02:11;25.50;43.90
7900;DHT22;3995;50.856;4.404;2022-08-27T12:04:46;25.70;44.20
7900;DHT22;3995;50.856;4.404;2022-08-27T12:07:33;25.70;44.10
7900;DHT22;3995;50.856;4.404;2022-08-27T12:10:19;25.90;43.90
7900;DHT22;3995;50.856;4.404;2022-08-27T12:13:00;25.80;43.80
7900;DHT22;3995;50.856;4.404;2022-08-27T12:15:44;25.80;44.10
7900;DHT22;3995;50.856;4.404;2022-08-27T12:18:28;25.70;44.30
7900;DHT22;3995;50.856;4.404;2022-08-27T12:21:09;25.70;44.60
7900;DHT22;3995;50.856;4.404;2022-08-27T12:23:47;25.70;44.70
7900;DHT22;3995;50.856;4.404;2022-08-27T12:26:27;25.70;44.80
7900;DHT22;3995;50.856;4.404;2022-08-27T12:29:20;25.70;44.90
7900;DHT22;3995;50.856;4.404;2022-08-27T12:31:50;25.70;44.60
7900;DHT22;3995;50.856;4.404;2022-08-27T12:34:21;25.60;44.70
7900;DHT22;3995;50.856;4.404;2022-08-27T12:36:51;25.60;44.60
7900;DHT22;3995;50.856;4.404;2022-08-27T12:39:22;25.60;44.60
7900;DHT22;3995;50.856;4.404;2022-08-27T12:41:51;25.60;44.70
7900;DHT22;3995;50.856;4.404;2022-08-27T12:44:25;25.60;44.60
7900;DHT22;3995;50.856;4.404;2022-08-27T12:46:58;25.60;44.50
7900;DHT22;3995;50.856;4.404;2022-08-27T12:49:40;25.60;44.60
7900;DHT22;3995;50.856;4.404;2022-08-27T12:52:18;25.60;44.50
7900;DHT22;3995;50.856;4.404;2022-08-27T12:54:57;25.60;44.60
7900;DHT22;3995;50.856;4.404;2022-08-27T12:57:34;25.60;44.80
7900;DHT22;3995;50.856;4.404;2022-08-27T13:00:10;25.60;44.90
7900;DHT22;3995;50.856;4.404;2022-08-27T13:02:54;25.60;44.90
7900;DHT22;3995;50.856;4.404;2022-08-27T13:05:23;25.70;44.60
7900;DHT22;3995;50.856;4.404;2022-08-27T13:07:52;25.60;44.60
7900;DHT22;3995;50.856;4.404;2022-08-27T13:10:23;25.70;44.60
7900;DHT22;3995;50.856;4.404;2022-08-27T13:13:01;25.70;44.40
7900;DHT22;3995;50.856;4.404;2022-08-27T13:15:31;25.70;44.30
7900;DHT22;3995;50.856;4.404;2022-08-27T13:18:02;25.70;44.60
7900;DHT22;3995;50.856;4.404;2022-08-27T13:20:33;25.70;44.70
7900;DHT22;3995;50.856;4.404;2022-08-27T13:23:02;25.70;44.80
7900;DHT22;3995;50.856;4.404;2022-08-27T13:25:31;25.70;44.90
7900;DHT22;3995;50.856;4.404;2022-08-27T13:28:00;25.70;44.80
7900;DHT22;3995;50.856;4.404;2022-08-27T13:30:35;25.70;44.70
7900;DHT22;3995;50.856;4.404;2022-08-27T13:33:04;25.70;44.70
7900;DHT22;3995;50.856;4.404;2022-08-27T13:35:32;25.70;44.70
7900;DHT22;3995;50.856;4.404;2022-08-27T13:38:03;25.70;44.90
7900;DHT22;3995;50.856;4.404;2022-08-27T13:40:32;25.70;45.00
7900;DHT22;3995;50.856;4.404;2022-08-27T13:43:02;25.70;45.10
7900;DHT22;3995;50.856;4.404;2022-08-27T13:45:31;25.70;45.00
7900;DHT22;3995;50.856;4.404;2022-08-27T13:48:00;25.70;45.00
7900;DHT22;3995;50.856;4.404;2022-08-27T13:50:29;25.70;45.10
7900;DHT22;3995;50.856;4.404;2022-08-27T13:53:04;25.70;45.00
7900;DHT22;3995;50.856;4.404;2022-08-27T13:55:50;25.70;45.20
7900;DHT22;3995;50.856;4.404;2022-08-27T13:58:21;25.60;45.20
7900;DHT22;3995;50.856;4.404;2022-08-27T14:00:49;25.60;45.10
7900;DHT22;3995;50.856;4.404;2022-08-27T14:03:32;25.60;45.20
7900;DHT22;3995;50.856;4.404;2022-08-27T14:06:00;25.70;45.20
7900;DHT22;3995;50.856;4.404;2022-08-27T14:08:31;25.60;45.30
7900;DHT22;3995;50.856;4.404;2022-08-27T14:11:02;25.60;45.50
7900;DHT22;3995;50.856;4.404;2022-08-27T14:13:38;25.60;45.50
7900;DHT22;3995;50.856;4.404;2022-08-27T14:16:13;25.60;45.50
7900;DHT22;3995;50.856;4.404;2022-08-27T14:18:51;25.60;45.50
7900;DHT22;3995;50.856;4.404;2022-08-27T14:21:20;25.60;45.50
7900;DHT22;3995;50.856;4.404;2022-08-27T14:23:48;25.60;45.60
7900;DHT22;3995;50.856;4.404;2022-08-27T14:26:16;25.60;45.50
7900;DHT22;3995;50.856;4.404;2022-08-27T14:28:43;25.60;45.30
7900;DHT22;3995;50.856;4.404;2022-08-27T14:31:12;25.60;45.20
7900;DHT22;3995;50.856;4.404;2022-08-27T14:33:39;25.60;44.80
7900;DHT22;3995;50.856;4.404;2022-08-27T14:36:08;25.60;44.80
7900;DHT22;3995;50.856;4.404;2022-08-27T14:38:37;25.60;44.40
7900;DHT22;3995;50.856;4.404;2022-08-27T14:41:05;25.60;44.50
7900;DHT22;3995;50.856;4.404;2022-08-27T14:43:32;25.60;44.60
7900;DHT22;3995;50.856;4.404;2022-08-27T14:46:00;25.60;44.60
7900;DHT22;3995;50.856;4.404;2022-08-27T14:48:30;25.60;44.70
7900;DHT22;3995;50.856;4.404;2022-08-27T14:51:00;25.60;44.80
7900;DHT22;3995;50.856;4.404;2022-08-27T14:53:30;25.60;44.70
7900;DHT22;3995;50.856;4.404;2022-08-27T14:55:58;25.60;44.80
7900;DHT22;3995;50.856;4.404;2022-08-27T14:58:26;25.60;44.80
7900;DHT22;3995;50.856;4.404;2022-08-27T15:00:54;25.60;44.90
7900;DHT22;3995;50.856;4.404;2022-08-27T15:03:22;25.60;45.00
7900;DHT22;3995;50.856;4.404;2022-08-27T15:05:50;25.70;45.10
7900;DHT22;3995;50.856;4.404;2022-08-27T15:08:19;25.70;45.10
7900;DHT22;3995;50.856;4.404;2022-08-27T15:10:48;25.70;44.90
7900;DHT22;3995;50.856;4.404;2022-08-27T15:13:16;25.70;45.00
7900;DHT22;3995;50.856;4.404;2022-08-27T15:15:43;25.70;44.80
7900;DHT22;3995;50.856;4.404;2022-08-27T15:18:10;25.70;44.60
7900;DHT22;3995;50.856;4.404;2022-08-27T15:20:39;25.70;44.70
7900;DHT22;3995;50.856;4.404;2022-08-27T15:23:07;25.70;44.70
7900;DHT22;3995;50.856;4.404;2022-08-27T15:25:35;25.70;44.70
7900;DHT22;3995;50.856;4.404;2022-08-27T15:28:04;25.70;44.70
7900;DHT22;3995;50.856;4.404;2022-08-27T15:30:32;25.70;44.60
7900;DHT22;3995;50.856;4.404;2022-08-27T15:33:03;25.70;44.30
7900;DHT22;3995;50.856;4.404;2022-08-27T15:35:31;25.70;44.00
7900;DHT22;3995;50.856;4.404;2022-08-27T15:37:58;25.70;43.90
7900;DHT22;3995;50.856;4.404;2022-08-27T15:40:27;25.70;43.90
7900;DHT22;3995;50.856;4.404;2022-08-27T15:42:58;25.70;43.70
7900;DHT22;3995;50.856;4.404;2022-08-27T15:45:28;25.70;43.80
7900;DHT22;3995;50.856;4.404;2022-08-27T15:47:57;25.70;43.80
7900;DHT22;3995;50.856;4.404;2022-08-27T15:50:26;25.70;43.80
7900;DHT22;3995;50.856;4.404;2022-08-27T15:52:56;25.70;43.80
7900;DHT22;3995;50.856;4.404;2022-08-27T15:55:27;25.70;43.90
7900;DHT22;3995;50.856;4.404;2022-08-27T15:57:56;25.70;44.00
7900;DHT22;3995;50.856;4.404;2022-08-27T16:00:25;25.70;44.10
7900;DHT22;3995;50.856;4.404;2022-08-27T16:02:54;25.70;44.20
7900;DHT22;3995;50.856;4.404;2022-08-27T16:05:21;25.70;44.20
7900;DHT22;3995;50.856;4.404;2022-08-27T16:07:49;25.70;44.20
7900;DHT22;3995;50.856;4.404;2022-08-27T16:10:16;25.70;44.20
7900;DHT22;3995;50.856;4.404;2022-08-27T16:12:43;25.70;44.20
7900;DHT22;3995;50.856;4.404;2022-08-27T16:15:12;25.70;44.30
7900;DHT22;3995;50.856;4.404;2022-08-27T16:17:39;25.70;44.40
7900;DHT22;3995;50.856;4.404;2022-08-27T16:20:10;25.70;44.60
7900;DHT22;3995;50.856;4.404;2022-08-27T16:22:38;25.70;44.70